sensor_id;sensor_type;location;lat;lon;timestamp;P1;durP1;ratioP1;P2;durP2;ratioP2
41466;SDS011;27205;53.690;19.948;2022-09-11T00:02:29;14.90;;;13.70;;
41466;SDS011;27205;53.690;19.948;2022-09-11T00:07:33;15.60;;;14.40;;
41466;SDS011;27205;53.690;19.948;2022-09-11T00:12:36;14.10;;;12.90;;
41466;SDS011;27205;53.690;19.948;2022-09-11T00:17:39;13.20;;;12.20;;
41466;SDS011;27205;53.690;19.948;2022-09-11T00:22:43;12.90;;;11.90;;
41466;SDS011;27205;53.690;19.948;2022-09-11T00:27:46;15.50;;;14.20;;
41466;SDS011;27205;53.690;19.948;2022-09-11T00:32:50;14.50;;;13.30;;
41466;SDS011;27205;53.690;19.948;2022-09-11T00:37:54;15.40;;;14.10;;
41466;SDS011;27205;53.690;19.948;2022-09-11T00:42:57;13.70;;;12.50;;
41466;SDS011;27205;53.690;19.948;2022-09-11T00:48:01;11.70;;;10.80;;
41466;SDS011;27205;53.690;19.948;2022-09-11T00:53:06;12.20;;;11.20;;
41466;SDS011;27205;53.690;19.948;2022-09-11T00:58:13;13.30;;;12.10;;
41466;SDS011;27205;53.690;19.948;2022-09-11T01:03:20;11.30;;;10.40;;
41466;SDS011;27205;53.690;19.948;2022-09-11T01:08:25;10.60;;;9.70;;
41466;SDS011;27205;53.690;19.948;2022-09-11T01:19:04;10.90;;;10.00;;
41466;SDS011;27205;53.690;19.948;2022-09-11T01:24:21;10.80;;;9.80;;
41466;SDS011;27205;53.690;19.948;2022-09-11T01:35:01;10.30;;;9.30;;
41466;SDS011;27205;53.690;19.948;2022-09-11T01:40:19;12.20;;;11.00;;
41466;SDS011;27205;53.690;19.948;2022-09-11T01:45:43;14.50;;;13.20;;
41466;SDS011;27205;53.690;19.948;2022-09-11T01:50:49;13.30;;;12.10;;
41466;SDS011;27205;53.690;19.948;2022-09-11T01:55:59;14.00;;;12.90;;
41466;SDS011;27205;53.690;19.948;2022-09-11T02:11:54;15.00;;;13.60;;
41466;SDS011;27205;53.690;19.948;2022-09-11T02:22:08;13.00;;;11.70;;
41466;SDS011;27205;53.690;19.948;2022-09-11T02:27:13;13.80;;;12.70;;
41466;SDS011;27205;53.690;19.948;2022-09-11T02:32:21;11.30;;;10.40;;
41466;SDS011;27205;53.690;19.948;2022-09-11T02:53:31;12.00;;;10.90;;
41466;SDS011;27205;53.690;19.948;2022-09-11T03:03:57;9.90;;;9.10;;
41466;SDS011;27205;53.690;19.948;2022-09-11T03:09:01;10.20;;;9.20;;
41466;SDS011;27205;53.690;19.948;2022-09-11T03:14:04;8.50;;;7.70;;
41466;SDS011;27205;53.690;19.948;2022-09-11T03:19:08;8.00;;;7.30;;
41466;SDS011;27205;53.690;19.948;2022-09-11T03:24:12;8.50;;;7.30;;
41466;SDS011;27205;53.690;19.948;2022-09-11T03:29:16;8.40;;;7.70;;
41466;SDS011;27205;53.690;19.948;2022-09-11T03:34:19;7.90;;;7.10;;
41466;SDS011;27205;53.690;19.948;2022-09-11T03:39:22;9.20;;;8.30;;
41466;SDS011;27205;53.690;19.948;2022-09-11T03:44:26;8.90;;;8.10;;
41466;SDS011;27205;53.690;19.948;2022-09-11T03:49:29;9.60;;;8.10;;
41466;SDS011;27205;53.690;19.948;2022-09-11T03:54:33;8.50;;;7.80;;
41466;SDS011;27205;53.690;19.948;2022-09-11T03:59:37;7.10;;;6.50;;
41466;SDS011;27205;53.690;19.948;2022-09-11T04:04:40;8.00;;;7.40;;
41466;SDS011;27205;53.690;19.948;2022-09-11T04:09:44;8.90;;;7.90;;
41466;SDS011;27205;53.690;19.948;2022-09-11T04:14:48;8.20;;;7.30;;
41466;SDS011;27205;53.690;19.948;2022-09-11T04:19:52;7.60;;;6.70;;
41466;SDS011;27205;53.690;19.948;2022-09-11T04:24:55;7.70;;;6.90;;
41466;SDS011;27205;53.690;19.948;2022-09-11T04:35:02;7.60;;;6.90;;
41466;SDS011;27205;53.690;19.948;2022-09-11T04:40:06;7.80;;;6.70;;
41466;SDS011;27205;53.690;19.948;2022-09-11T04:45:11;7.10;;;6.40;;
41466;SDS011;27205;53.690;19.948;2022-09-11T04:50:15;7.70;;;6.20;;
41466;SDS011;27205;53.690;19.948;2022-09-11T04:55:18;7.00;;;6.40;;
41466;SDS011;27205;53.690;19.948;2022-09-11T05:00:21;8.00;;;7.00;;
41466;SDS011;27205;53.690;19.948;2022-09-11T05:05:24;9.90;;;6.30;;
41466;SDS011;27205;53.690;19.948;2022-09-11T05:10:28;6.70;;;6.10;;
41466;SDS011;27205;53.690;19.948;2022-09-11T05:15:31;10.30;;;6.60;;
41466;SDS011;27205;53.690;19.948;2022-09-11T05:20:36;6.60;;;6.00;;
41466;SDS011;27205;53.690;19.948;2022-09-11T05:25:39;6.60;;;5.90;;
41466;SDS011;27205;53.690;19.948;2022-09-11T05:30:43;7.20;;;5.50;;
41466;SDS011;27205;53.690;19.948;2022-09-11T05:35:46;7.60;;;5.70;;
41466;SDS011;27205;53.690;19.948;2022-09-11T05:40:50;6.20;;;5.60;;
41466;SDS011;27205;53.690;19.948;2022-09-11T05:45:54;8.80;;;6.60;;
41466;SDS011;27205;53.690;19.948;2022-09-11T05:51:00;6.50;;;4.90;;
41466;SDS011;27205;53.690;19.948;2022-09-11T05:56:11;5.80;;;5.20;;
41466;SDS011;27205;53.690;19.948;2022-09-11T06:01:18;6.20;;;5.20;;
41466;SDS011;27205;53.690;19.948;2022-09-11T06:06:25;7.50;;;4.90;;
41466;SDS011;27205;53.690;19.948;2022-09-11T06:11:30;4.70;;;4.30;;
41466;SDS011;27205;53.690;19.948;2022-09-11T06:16:33;7.20;;;5.40;;
41466;SDS011;27205;53.690;19.948;2022-09-11T06:21:37;5.20;;;4.80;;
41466;SDS011;27205;53.690;19.948;2022-09-11T06:26:40;7.50;;;4.80;;
41466;SDS011;27205;53.690;19.948;2022-09-11T06:31:48;5.60;;;5.00;;
41466;SDS011;27205;53.690;19.948;2022-09-11T06:36:53;5.30;;;4.70;;
41466;SDS011;27205;53.690;19.948;2022-09-11T06:41:57;5.50;;;5.00;;
41466;SDS011;27205;53.690;19.948;2022-09-11T06:47:02;6.40;;;4.50;;
41466;SDS011;27205;53.690;19.948;2022-09-11T06:52:05;4.70;;;4.10;;
41466;SDS011;27205;53.690;19.948;2022-09-11T06:57:09;4.70;;;4.20;;
41466;SDS011;27205;53.690;19.948;2022-09-11T07:02:14;4.10;;;3.80;;
41466;SDS011;27205;53.690;19.948;2022-09-11T07:07:18;3.70;;;3.10;;
41466;SDS011;27205;53.690;19.948;2022-09-11T07:12:21;6.40;;;4.20;;
41466;SDS011;27205;53.690;19.948;2022-09-11T07:17:25;4.20;;;3.80;;
41466;SDS011;27205;53.690;19.948;2022-09-11T07:22:29;5.00;;;3.80;;
41466;SDS011;27205;53.690;19.948;2022-09-11T07:27:36;4.20;;;3.60;;
41466;SDS011;27205;53.690;19.948;2022-09-11T07:32:40;3.90;;;3.60;;
41466;SDS011;27205;53.690;19.948;2022-09-11T07:37:43;2.70;;;2.50;;
41466;SDS011;27205;53.690;19.948;2022-09-11T07:42:52;3.40;;;3.10;;
41466;SDS011;27205;53.690;19.948;2022-09-11T07:47:55;3.30;;;2.30;;
41466;SDS011;27205;53.690;19.948;2022-09-11T07:52:59;2.50;;;2.30;;
41466;SDS011;27205;53.690;19.948;2022-09-11T07:58:02;3.30;;;2.70;;
41466;SDS011;27205;53.690;19.948;2022-09-11T08:03:05;2.80;;;2.40;;
41466;SDS011;27205;53.690;19.948;2022-09-11T08:08:09;3.30;;;2.70;;
41466;SDS011;27205;53.690;19.948;2022-09-11T08:13:12;2.30;;;1.80;;
41466;SDS011;27205;53.690;19.948;2022-09-11T08:18:16;3.30;;;2.40;;
41466;SDS011;27205;53.690;19.948;2022-09-11T08:23:19;3.00;;;1.70;;
41466;SDS011;27205;53.690;19.948;2022-09-11T08:28:26;3.40;;;1.90;;
41466;SDS011;27205;53.690;19.948;2022-09-11T08:33:29;3.00;;;2.00;;
41466;SDS011;27205;53.690;19.948;2022-09-11T08:38:37;2.00;;;1.40;;
41466;SDS011;27205;53.690;19.948;2022-09-11T08:43:47;2.20;;;2.00;;
41466;SDS011;27205;53.690;19.948;2022-09-11T08:48:58;4.30;;;1.50;;
41466;SDS011;27205;53.690;19.948;2022-09-11T08:54:04;1.50;;;1.40;;
41466;SDS011;27205;53.690;19.948;2022-09-11T09:20:44;2.10;;;1.50;;
41466;SDS011;27205;53.690;19.948;2022-09-11T09:26:02;1.90;;;1.50;;
41466;SDS011;27205;53.690;19.948;2022-09-11T09:31:06;2.10;;;1.40;;
41466;SDS011;27205;53.690;19.948;2022-09-11T09:51:55;2.20;;;1.60;;
41466;SDS011;27205;53.690;19.948;2022-09-11T09:57:07;2.10;;;1.70;;
41466;SDS011;27205;53.690;19.948;2022-09-11T10:02:28;2.60;;;1.10;;
41466;SDS011;27205;53.690;19.948;2022-09-11T10:07:46;2.10;;;1.00;;
41466;SDS011;27205;53.690;19.948;2022-09-11T10:13:17;2.30;;;1.30;;
41466;SDS011;27205;53.690;19.948;2022-09-11T10:28:53;1.70;;;1.50;;
41466;SDS011;27205;53.690;19.948;2022-09-11T10:34:02;1.90;;;1.50;;
41466;SDS011;27205;53.690;19.948;2022-09-11T10:39:12;1.10;;;1.00;;
41466;SDS011;27205;53.690;19.948;2022-09-11T10:44:21;2.00;;;1.30;;
41466;SDS011;27205;53.690;19.948;2022-09-11T11:05:21;1.50;;;1.40;;
41466;SDS011;27205;53.690;19.948;2022-09-11T11:10:39;2.50;;;1.10;;
41466;SDS011;27205;53.690;19.948;2022-09-11T11:15:56;3.70;;;1.00;;
41466;SDS011;27205;53.690;19.948;2022-09-11T11:21:27;1.30;;;1.00;;
41466;SDS011;27205;53.690;19.948;2022-09-11T11:26:45;2.50;;;1.30;;
41466;SDS011;27205;53.690;19.948;2022-09-11T11:43:31;1.40;;;1.30;;
41466;SDS011;27205;53.690;19.948;2022-09-11T12:34:14;1.50;;;1.20;;
41466;SDS011;27205;53.690;19.948;2022-09-11T12:39:47;1.40;;;1.10;;
41466;SDS011;27205;53.690;19.948;2022-09-11T12:44:55;1.80;;;1.50;;
41466;SDS011;27205;53.690;19.948;2022-09-11T13:01:03;1.30;;;1.20;;
41466;SDS011;27205;53.690;19.948;2022-09-11T13:06:10;1.40;;;1.00;;
41466;SDS011;27205;53.690;19.948;2022-09-11T13:16:46;1.40;;;0.90;;
41466;SDS011;27205;53.690;19.948;2022-09-11T13:21:50;3.20;;;1.70;;
41466;SDS011;27205;53.690;19.948;2022-09-11T13:27:02;1.00;;;0.90;;
41466;SDS011;27205;53.690;19.948;2022-09-11T13:32:13;1.60;;;1.10;;
41466;SDS011;27205;53.690;19.948;2022-09-11T13:37:24;3.50;;;1.20;;
41466;SDS011;27205;53.690;19.948;2022-09-11T13:42:50;3.10;;;1.50;;
41466;SDS011;27205;53.690;19.948;2022-09-11T13:47:54;3.00;;;1.50;;
41466;SDS011;27205;53.690;19.948;2022-09-11T13:52:59;2.30;;;1.30;;
41466;SDS011;27205;53.690;19.948;2022-09-11T13:58:18;2.50;;;1.40;;
41466;SDS011;27205;53.690;19.948;2022-09-11T14:03:26;2.40;;;1.40;;
41466;SDS011;27205;53.690;19.948;2022-09-11T14:08:34;2.10;;;0.90;;
41466;SDS011;27205;53.690;19.948;2022-09-11T14:19:11;1.60;;;1.50;;
41466;SDS011;27205;53.690;19.948;2022-09-11T14:24:32;1.50;;;1.10;;
41466;SDS011;27205;53.690;19.948;2022-09-11T14:29:50;3.10;;;1.20;;
41466;SDS011;27205;53.690;19.948;2022-09-11T14:34:54;2.50;;;1.30;;
41466;SDS011;27205;53.690;19.948;2022-09-11T14:39:58;1.90;;;1.70;;
41466;SDS011;27205;53.690;19.948;2022-09-11T14:45:23;2.30;;;1.50;;
41466;SDS011;27205;53.690;19.948;2022-09-11T14:50:27;2.30;;;2.10;;
41466;SDS011;27205;53.690;19.948;2022-09-11T14:55:32;1.60;;;1.20;;
41466;SDS011;27205;53.690;19.948;2022-09-11T15:00:36;2.10;;;1.00;;
41466;SDS011;27205;53.690;19.948;2022-09-11T15:05:41;1.50;;;0.80;;
41466;SDS011;27205;53.690;19.948;2022-09-11T15:10:46;1.40;;;1.20;;
41466;SDS011;27205;53.690;19.948;2022-09-11T15:15:50;2.30;;;1.20;;
41466;SDS011;27205;53.690;19.948;2022-09-11T15:20:54;1.60;;;1.20;;
41466;SDS011;27205;53.690;19.948;2022-09-11T15:25:58;1.20;;;0.90;;
41466;SDS011;27205;53.690;19.948;2022-09-11T15:31:04;1.10;;;0.80;;
41466;SDS011;27205;53.690;19.948;2022-09-11T15:36:07;4.00;;;1.20;;
41466;SDS011;27205;53.690;19.948;2022-09-11T15:41:11;2.40;;;1.10;;
41466;SDS011;27205;53.690;19.948;2022-09-11T15:46:15;2.60;;;1.10;;
41466;SDS011;27205;53.690;19.948;2022-09-11T15:51:20;1.20;;;1.10;;
41466;SDS011;27205;53.690;19.948;2022-09-11T15:56:27;1.70;;;1.20;;
41466;SDS011;27205;53.690;19.948;2022-09-11T16:01:32;1.60;;;0.90;;
41466;SDS011;27205;53.690;19.948;2022-09-11T16:06:38;1.40;;;1.30;;
41466;SDS011;27205;53.690;19.948;2022-09-11T16:11:44;1.60;;;0.90;;
41466;SDS011;27205;53.690;19.948;2022-09-11T16:16:50;2.30;;;1.00;;
41466;SDS011;27205;53.690;19.948;2022-09-11T16:21:55;1.60;;;0.80;;
41466;SDS011;27205;53.690;19.948;2022-09-11T16:26:59;1.40;;;1.30;;
41466;SDS011;27205;53.690;19.948;2022-09-11T16:32:03;1.20;;;1.10;;
41466;SDS011;27205;53.690;19.948;2022-09-11T16:37:08;2.10;;;1.10;;
41466;SDS011;27205;53.690;19.948;2022-09-11T16:42:12;1.60;;;1.40;;
41466;SDS011;27205;53.690;19.948;2022-09-11T16:47:16;4.00;;;3.20;;
41466;SDS011;27205;53.690;19.948;2022-09-11T16:52:20;1.90;;;1.30;;
41466;SDS011;27205;53.690;19.948;2022-09-11T16:57:23;1.40;;;1.10;;
41466;SDS011;27205;53.690;19.948;2022-09-11T17:02:29;4.60;;;1.60;;
41466;SDS011;27205;53.690;19.948;2022-09-11T17:07:33;5.30;;;5.00;;
41466;SDS011;27205;53.690;19.948;2022-09-11T17:12:37;5.90;;;3.70;;
41466;SDS011;27205;53.690;19.948;2022-09-11T17:17:40;4.60;;;4.30;;
41466;SDS011;27205;53.690;19.948;2022-09-11T17:22:45;4.60;;;4.30;;
41466;SDS011;27205;53.690;19.948;2022-09-11T17:27:48;9.00;;;8.30;;
41466;SDS011;27205;53.690;19.948;2022-09-11T17:32:52;5.40;;;4.70;;
41466;SDS011;27205;53.690;19.948;2022-09-11T17:37:57;3.50;;;3.20;;
41466;SDS011;27205;53.690;19.948;2022-09-11T17:43:02;4.60;;;2.10;;
41466;SDS011;27205;53.690;19.948;2022-09-11T17:53:10;3.70;;;3.20;;
41466;SDS011;27205;53.690;19.948;2022-09-11T17:58:14;3.00;;;2.80;;
41466;SDS011;27205;53.690;19.948;2022-09-11T18:03:18;1.70;;;1.60;;
41466;SDS011;27205;53.690;19.948;2022-09-11T18:08:24;2.40;;;2.20;;
41466;SDS011;27205;53.690;19.948;2022-09-11T18:18:33;2.10;;;1.90;;
41466;SDS011;27205;53.690;19.948;2022-09-11T18:23:38;5.70;;;5.10;;
41466;SDS011;27205;53.690;19.948;2022-09-11T18:28:44;6.30;;;5.70;;
41466;SDS011;27205;53.690;19.948;2022-09-11T18:33:52;4.40;;;4.10;;
41466;SDS011;27205;53.690;19.948;2022-09-11T18:39:00;6.20;;;5.40;;
41466;SDS011;27205;53.690;19.948;2022-09-11T18:44:07;4.80;;;3.00;;
41466;SDS011;27205;53.690;19.948;2022-09-11T18:49:22;2.70;;;2.00;;
41466;SDS011;27205;53.690;19.948;2022-09-11T18:54:26;2.20;;;1.90;;
41466;SDS011;27205;53.690;19.948;2022-09-11T18:59:31;2.50;;;2.10;;
41466;SDS011;27205;53.690;19.948;2022-09-11T19:04:35;3.20;;;2.50;;
41466;SDS011;27205;53.690;19.948;2022-09-11T19:09:39;2.80;;;2.30;;
41466;SDS011;27205;53.690;19.948;2022-09-11T19:14:47;3.90;;;2.70;;
41466;SDS011;27205;53.690;19.948;2022-09-11T19:19:50;2.70;;;2.00;;
41466;SDS011;27205;53.690;19.948;2022-09-11T19:24:56;2.30;;;2.00;;
41466;SDS011;27205;53.690;19.948;2022-09-11T19:30:02;3.50;;;2.50;;
41466;SDS011;27205;53.690;19.948;2022-09-11T19:35:08;2.00;;;1.80;;
41466;SDS011;27205;53.690;19.948;2022-09-11T19:40:12;5.00;;;2.40;;
41466;SDS011;27205;53.690;19.948;2022-09-11T19:45:16;2.90;;;2.10;;
41466;SDS011;27205;53.690;19.948;2022-09-11T19:50:21;3.60;;;2.30;;
41466;SDS011;27205;53.690;19.948;2022-09-11T19:55:25;2.00;;;1.80;;
41466;SDS011;27205;53.690;19.948;2022-09-11T20:00:29;2.50;;;2.30;;
41466;SDS011;27205;53.690;19.948;2022-09-11T20:05:33;2.50;;;2.30;;
41466;SDS011;27205;53.690;19.948;2022-09-11T20:10:36;3.10;;;2.40;;
41466;SDS011;27205;53.690;19.948;2022-09-11T20:15:42;2.60;;;1.90;;
41466;SDS011;27205;53.690;19.948;2022-09-11T20:20:50;2.20;;;2.00;;
41466;SDS011;27205;53.690;19.948;2022-09-11T20:25:53;2.30;;;2.10;;
41466;SDS011;27205;53.690;19.948;2022-09-11T20:30:56;3.20;;;2.80;;
41466;SDS011;27205;53.690;19.948;2022-09-11T20:36:02;4.00;;;3.60;;
41466;SDS011;27205;53.690;19.948;2022-09-11T20:41:06;5.30;;;3.30;;
41466;SDS011;27205;53.690;19.948;2022-09-11T20:46:10;2.30;;;2.10;;
41466;SDS011;27205;53.690;19.948;2022-09-11T20:56:50;3.10;;;2.80;;
41466;SDS011;27205;53.690;19.948;2022-09-11T21:01:53;2.70;;;2.20;;
41466;SDS011;27205;53.690;19.948;2022-09-11T21:06:57;2.60;;;1.70;;
41466;SDS011;27205;53.690;19.948;2022-09-11T21:12:02;3.10;;;2.50;;
41466;SDS011;27205;53.690;19.948;2022-09-11T21:17:05;2.50;;;2.20;;
41466;SDS011;27205;53.690;19.948;2022-09-11T21:22:09;2.50;;;1.70;;
41466;SDS011;27205;53.690;19.948;2022-09-11T21:27:12;2.90;;;2.60;;
41466;SDS011;27205;53.690;19.948;2022-09-11T21:32:16;6.30;;;2.90;;
41466;SDS011;27205;53.690;19.948;2022-09-11T21:37:19;2.60;;;2.30;;
41466;SDS011;27205;53.690;19.948;2022-09-11T21:42:23;2.60;;;2.10;;
41466;SDS011;27205;53.690;19.948;2022-09-11T21:47:26;2.90;;;2.30;;
41466;SDS011;27205;53.690;19.948;2022-09-11T21:52:30;3.10;;;2.80;;
41466;SDS011;27205;53.690;19.948;2022-09-11T21:57:33;2.60;;;2.30;;
41466;SDS011;27205;53.690;19.948;2022-09-11T22:02:36;1.70;;;1.50;;
41466;SDS011;27205;53.690;19.948;2022-09-11T22:07:40;2.50;;;2.30;;
41466;SDS011;27205;53.690;19.948;2022-09-11T22:12:44;3.20;;;2.20;;
41466;SDS011;27205;53.690;19.948;2022-09-11T22:17:47;3.90;;;2.00;;
41466;SDS011;27205;53.690;19.948;2022-09-11T22:22:51;2.50;;;2.10;;
41466;SDS011;27205;53.690;19.948;2022-09-11T22:27:58;2.00;;;1.90;;
41466;SDS011;27205;53.690;19.948;2022-09-11T22:33:01;2.50;;;2.00;;
41466;SDS011;27205;53.690;19.948;2022-09-11T22:38:04;5.30;;;2.80;;
41466;SDS011;27205;53.690;19.948;2022-09-11T22:43:08;3.70;;;2.20;;
41466;SDS011;27205;53.690;19.948;2022-09-11T22:48:11;3.50;;;2.90;;
41466;SDS011;27205;53.690;19.948;2022-09-11T22:53:15;2.50;;;2.10;;
41466;SDS011;27205;53.690;19.948;2022-09-11T22:58:18;3.90;;;2.70;;
41466;SDS011;27205;53.690;19.948;2022-09-11T23:08:30;3.50;;;2.30;;
41466;SDS011;27205;53.690;19.948;2022-09-11T23:18:44;3.90;;;2.10;;
41466;SDS011;27205;53.690;19.948;2022-09-11T23:23:51;2.90;;;2.00;;
41466;SDS011;27205;53.690;19.948;2022-09-11T23:28:56;2.40;;;1.70;;
41466;SDS011;27205;53.690;19.948;2022-09-11T23:34:01;2.20;;;2.00;;
41466;SDS011;27205;53.690;19.948;2022-09-11T23:39:06;2.40;;;2.10;;
41466;SDS011;27205;53.690;19.948;2022-09-11T23:44:10;2.80;;;2.00;;
41466;SDS011;27205;53.690;19.948;2022-09-11T23:49:13;3.20;;;2.20;;
41466;SDS011;27205;53.690;19.948;2022-09-11T23:54:17;4.60;;;2.00;;
41466;SDS011;27205;53.690;19.948;2022-09-11T23:59:21;2.80;;;1.90;;
